createdAt,value
2023-02-09T00:00:29.655Z,103197.97
2023-02-09T00:02:56.536Z,103200.63
2023-02-09T00:05:23.382Z,103192.94
2023-02-09T00:07:50.606Z,103189.75
2023-02-09T00:10:17.735Z,103190.78
2023-02-09T00:13:04.624Z,103189.03
2023-02-09T00:15:31.500Z,103189.16
2023-02-09T00:17:58.370Z,103185.13
2023-02-09T00:20:25.233Z,103186.91
2023-02-09T00:22:52.112Z,103174.91
2023-02-09T00:25:19.180Z,103178.50
2023-02-09T00:27:47.374Z,103179.63
2023-02-09T00:30:14.501Z,103185.22
2023-02-09T00:32:41.359Z,103177.69
2023-02-09T00:35:08.473Z,103176.00
2023-02-09T00:37:36.386Z,103174.91
2023-02-09T00:40:04.846Z,103173.88
2023-02-09T00:42:31.745Z,103170.34
2023-02-09T00:44:59.962Z,103170.56
2023-02-09T00:47:27.901Z,103167.09
2023-02-09T00:49:54.885Z,103169.66
2023-02-09T00:52:21.843Z,103168.66
2023-02-09T00:54:48.783Z,103176.25
2023-02-09T00:57:15.709Z,103170.06
2023-02-09T00:59:42.619Z,103171.69
2023-02-09T01:02:10.809Z,103171.59
2023-02-09T01:04:38.591Z,103171.47
2023-02-09T01:07:05.701Z,103171.28
2023-02-09T01:09:32.818Z,103173.00
2023-02-09T01:11:59.942Z,103172.75
2023-02-09T01:14:27.060Z,103169.16
2023-02-09T01:16:54.044Z,103168.16
2023-02-09T01:19:22.308Z,103161.06
2023-02-09T01:21:49.398Z,103149.84
2023-02-09T01:24:16.509Z,103145.06
2023-02-09T01:26:43.599Z,103146.44
2023-02-09T01:29:13.880Z,103140.16
2023-02-09T01:31:40.919Z,103134.94
2023-02-09T01:34:07.945Z,103137.53
2023-02-09T01:36:36.305Z,103134.94
2023-02-09T01:39:04.219Z,103134.03
2023-02-09T01:41:32.216Z,103133.22
2023-02-09T01:44:01.870Z,103133.22
2023-02-09T01:46:31.208Z,103134.03
2023-02-09T01:49:07.195Z,103135.69
2023-02-09T01:51:42.686Z,103132.03
2023-02-09T01:54:14.689Z,103130.97
2023-02-09T01:56:48.001Z,103119.63
2023-02-09T01:59:16.961Z,103117.78
2023-02-09T02:01:44.593Z,103110.03
2023-02-09T02:04:12.083Z,103110.19
2023-02-09T02:06:43.065Z,103105.97
2023-02-09T02:09:13.345Z,103106.94
2023-02-09T02:11:43.809Z,103103.75
2023-02-09T02:14:29.135Z,103097.28
2023-02-09T02:17:15.089Z,103094.91
2023-02-09T02:20:14.973Z,103098.88
2023-02-09T02:23:03.492Z,103102.53
2023-02-09T02:26:20.381Z,103099.44
2023-02-09T02:29:35.970Z,103095.13
2023-02-09T02:32:32.950Z,103080.53
2023-02-09T02:35:09.821Z,103084.81
2023-02-09T02:37:54.754Z,103077.97
2023-02-09T02:40:39.019Z,103066.72
2023-02-09T02:43:19.104Z,103071.88
2023-02-09T02:45:53.420Z,103068.41
2023-02-09T02:48:33.255Z,103065.69
2023-02-09T02:51:06.088Z,103074.31
2023-02-09T02:53:37.697Z,103067.28
2023-02-09T02:56:15.266Z,103064.69
2023-02-09T02:58:47.475Z,103066.31
2023-02-09T03:01:22.073Z,103066.22
2023-02-09T03:03:52.818Z,103060.03
2023-02-09T03:06:19.951Z,103057.41
2023-02-09T03:08:53.545Z,103057.50
2023-02-09T03:11:24.659Z,103056.56
2023-02-09T03:14:11.580Z,103055.03
2023-02-09T03:16:46.011Z,103048.91
2023-02-09T03:19:32.936Z,103043.84
2023-02-09T03:22:07.872Z,103030.91
2023-02-09T03:24:42.623Z,103030.22
2023-02-09T03:27:18.912Z,103019.22
2023-02-09T03:29:49.588Z,103023.63
2023-02-09T03:32:19.829Z,103014.88
2023-02-09T03:34:48.779Z,103020.84
2023-02-09T03:37:24.130Z,103018.31
2023-02-09T03:39:51.037Z,103018.41
2023-02-09T03:42:18.004Z,103019.94
2023-02-09T03:44:44.941Z,103009.53
2023-02-09T03:47:12.045Z,103013.81
2023-02-09T03:49:41.446Z,102997.13
2023-02-09T03:52:13.042Z,102992.69
2023-02-09T03:54:40.883Z,102999.09
2023-02-09T03:57:09.529Z,103000.94
2023-02-09T03:59:37.688Z,103001.84
2023-02-09T04:02:07.557Z,102997.84
2023-02-09T04:04:35.391Z,103000.91
2023-02-09T04:07:02.714Z,102993.25
2023-02-09T04:09:31.071Z,102993.09
2023-02-09T04:11:57.952Z,102995.63
2023-02-09T04:14:24.985Z,102987.91
2023-02-09T04:16:51.901Z,102982.56
2023-02-09T04:19:18.945Z,102989.38
2023-02-09T04:21:45.847Z,102972.81
2023-02-09T04:24:13.094Z,102968.31
2023-02-09T04:26:41.280Z,102965.56
2023-02-09T04:29:08.184Z,102965.50
2023-02-09T04:31:35.160Z,102962.03
2023-02-09T04:34:02.480Z,102952.75
2023-02-09T04:36:29.613Z,102952.84
2023-02-09T04:38:56.597Z,102953.78
2023-02-09T04:41:23.451Z,102963.41
2023-02-09T04:43:54.235Z,102961.72
2023-02-09T04:46:21.174Z,102964.56
2023-02-09T04:48:48.063Z,102968.78
2023-02-09T04:51:15.576Z,102965.22
2023-02-09T04:53:42.515Z,102954.81
2023-02-09T04:56:14.975Z,102947.78
2023-02-09T04:59:01.168Z,102930.56
2023-02-09T05:01:30.590Z,102931.34
2023-02-09T05:03:57.882Z,102926.13
2023-02-09T05:06:25.181Z,102925.19
2023-02-09T05:08:53.126Z,102920.94
2023-02-09T05:11:20.054Z,102927.91
2023-02-09T05:13:47.017Z,102923.44
2023-02-09T05:16:19.670Z,102932.34
2023-02-09T05:18:50.181Z,102927.75
2023-02-09T05:21:17.172Z,102919.78
2023-02-09T05:23:44.042Z,102929.13
2023-02-09T05:26:10.925Z,102923.00
2023-02-09T05:28:37.869Z,102923.47
2023-02-09T05:31:05.214Z,102934.31
2023-02-09T05:33:32.121Z,102942.75
2023-02-09T05:36:00.613Z,102933.88
2023-02-09T05:38:27.755Z,102937.41
2023-02-09T05:40:54.664Z,102941.53
2023-02-09T05:43:21.601Z,102943.13
2023-02-09T05:45:48.615Z,102949.81
2023-02-09T05:48:15.568Z,102959.00
2023-02-09T05:50:42.504Z,102966.97
2023-02-09T05:53:10.783Z,102962.50
2023-02-09T05:55:37.803Z,102954.78
2023-02-09T05:58:05.518Z,102961.69
2023-02-09T06:00:32.634Z,102962.69
2023-02-09T06:02:59.642Z,102973.78
2023-02-09T06:05:26.693Z,102964.34
2023-02-09T06:07:53.826Z,102966.06
2023-02-09T06:10:22.425Z,102970.25
2023-02-09T06:12:49.524Z,102974.47
2023-02-09T06:15:16.762Z,102969.09
2023-02-09T06:17:43.961Z,102981.22
2023-02-09T06:20:12.311Z,102980.88
2023-02-09T06:22:39.239Z,102978.28
2023-02-09T06:25:06.832Z,102974.69
2023-02-09T06:27:35.687Z,102972.16
2023-02-09T06:30:02.734Z,102975.69
2023-02-09T06:32:30.940Z,102977.38
2023-02-09T06:34:57.885Z,102980.75
2023-02-09T06:37:24.944Z,102979.84
2023-02-09T06:39:51.834Z,102974.69
2023-02-09T06:42:18.898Z,102985.34
2023-02-09T06:44:47.099Z,102987.78
2023-02-09T06:47:13.962Z,102985.94
2023-02-09T06:49:40.823Z,102984.09
2023-02-09T06:52:07.890Z,102974.53
2023-02-09T06:54:34.811Z,102970.31
2023-02-09T06:57:01.676Z,102971.25
2023-02-09T06:59:28.548Z,102970.31
2023-02-09T07:01:56.845Z,102964.97
2023-02-09T07:04:23.723Z,102976.91
2023-02-09T07:06:50.639Z,102969.69
2023-02-09T07:09:17.526Z,102967.69
2023-02-09T07:11:44.460Z,102971.22
2023-02-09T07:14:11.367Z,102966.75
2023-02-09T07:16:38.298Z,102972.75
2023-02-09T07:19:06.520Z,102976.28
2023-02-09T07:21:33.432Z,102966.94
2023-02-09T07:24:00.579Z,102976.97
2023-02-09T07:26:28.052Z,102980.16
2023-02-09T07:28:54.933Z,102979.34
2023-02-09T07:31:21.982Z,102975.28
2023-02-09T07:33:49.017Z,102973.47
2023-02-09T07:36:17.746Z,102983.31
2023-02-09T07:38:45.416Z,102993.25
2023-02-09T07:41:17.053Z,102981.31
2023-02-09T07:43:44.300Z,102982.78
2023-02-09T07:46:15.224Z,102990.34
2023-02-09T07:48:42.358Z,102986.16
2023-02-09T07:51:14.144Z,102988.25
2023-02-09T07:53:42.936Z,102984.91
2023-02-09T07:56:09.913Z,102980.94
2023-02-09T07:58:36.852Z,102973.25
2023-02-09T08:01:06.650Z,102983.78
2023-02-09T08:03:36.248Z,102981.63
2023-02-09T08:06:10.599Z,102986.84
2023-02-09T08:08:37.528Z,102987.97
2023-02-09T08:11:05.975Z,102984.94
2023-02-09T08:13:38.083Z,103002.47
2023-02-09T08:16:10.313Z,102998.91
2023-02-09T08:18:44.581Z,103004.28
2023-02-09T08:21:15.627Z,102997.69
2023-02-09T08:23:45.935Z,102986.38
2023-02-09T08:26:15.049Z,102995.34
2023-02-09T08:28:44.897Z,102993.97
2023-02-09T08:31:14.516Z,102988.84
2023-02-09T08:33:42.863Z,102987.84
2023-02-09T08:36:11.397Z,102991.69
2023-02-09T08:38:38.712Z,102979.06
2023-02-09T08:41:08.420Z,102979.59
2023-02-09T08:43:36.960Z,102971.53
2023-02-09T08:46:05.531Z,102976.38
2023-02-09T08:48:35.675Z,102984.72
2023-02-09T08:51:03.351Z,102974.06
2023-02-09T08:53:30.540Z,102980.47
2023-02-09T08:55:57.949Z,102981.72
2023-02-09T08:58:25.840Z,102966.00
2023-02-09T09:00:59.972Z,102967.34
2023-02-09T09:03:29.905Z,102972.34
2023-02-09T09:05:57.901Z,102961.91
2023-02-09T09:08:25.350Z,102953.13
2023-02-09T09:10:52.425Z,102925.44
2023-02-09T09:13:20.687Z,102943.31
2023-02-09T09:15:48.100Z,102931.16
2023-02-09T09:18:17.370Z,102944.13
2023-02-09T09:20:44.392Z,102952.00
2023-02-09T09:23:11.591Z,102939.78
2023-02-09T09:25:38.831Z,102941.53
2023-02-09T09:28:06.507Z,102939.69
2023-02-09T09:30:34.314Z,102941.84
2023-02-09T09:33:02.066Z,102950.38
2023-02-09T09:35:31.208Z,102947.19
2023-02-09T09:37:58.530Z,102946.59
2023-02-09T09:40:30.133Z,102944.41
2023-02-09T09:43:11.346Z,102933.78
2023-02-09T09:45:39.431Z,102939.06
2023-02-09T09:48:17.834Z,102944.81
2023-02-09T09:50:47.234Z,102951.00
2023-02-09T09:53:25.744Z,102945.53
2023-02-09T09:55:59.208Z,102947.19
2023-02-09T09:58:28.700Z,102960.59
2023-02-09T10:00:56.428Z,102955.06
2023-02-09T10:03:24.825Z,102948.16
2023-02-09T10:05:55.799Z,102947.44
2023-02-09T10:08:33.333Z,102949.94
2023-02-09T10:11:05.642Z,102941.91
2023-02-09T10:13:36.927Z,102938.53
2023-02-09T10:16:15.411Z,102945.75
2023-02-09T10:18:43.246Z,102928.66
2023-02-09T10:21:15.971Z,102935.94
2023-02-09T10:23:46.208Z,102937.63
2023-02-09T10:26:25.639Z,102930.06
2023-02-09T10:28:55.379Z,102956.00
2023-02-09T10:31:47.146Z,102951.69
2023-02-09T10:34:18.643Z,102952.84
2023-02-09T10:36:53.846Z,102967.84
2023-02-09T10:39:30.149Z,102964.34
2023-02-09T10:42:17.505Z,102948.00
2023-02-09T10:45:07.895Z,102958.69
2023-02-09T10:47:38.521Z,102945.25
2023-02-09T10:50:22.913Z,102958.28
2023-02-09T10:53:00.306Z,102952.97
2023-02-09T10:55:37.001Z,102957.66
2023-02-09T10:58:18.878Z,102971.88
2023-02-09T11:00:58.824Z,102978.63
2023-02-09T11:03:26.125Z,102974.38
2023-02-09T11:06:03.913Z,102971.69
2023-02-09T11:08:51.655Z,102956.69
2023-02-09T11:11:31.421Z,102961.03
2023-02-09T11:13:59.997Z,102958.97
2023-02-09T11:16:56.521Z,102966.34
2023-02-09T11:20:19.282Z,102963.00
2023-02-09T11:23:06.373Z,102968.19
2023-02-09T11:25:41.283Z,102957.91
2023-02-09T11:28:31.173Z,102966.25
2023-02-09T11:31:41.025Z,102954.56
2023-02-09T11:34:34.291Z,102955.31
2023-02-09T11:37:17.746Z,102965.50
2023-02-09T11:39:57.332Z,102967.91
2023-02-09T11:42:46.311Z,102968.03
2023-02-09T11:45:22.527Z,102965.69
2023-02-09T11:48:03.464Z,102971.09
2023-02-09T11:50:40.920Z,102967.19
2023-02-09T11:53:22.005Z,102966.78
2023-02-09T11:55:56.835Z,102966.41
2023-02-09T11:58:42.669Z,102959.22
2023-02-09T12:01:23.957Z,102958.53
2023-02-09T12:04:03.754Z,102965.09
2023-02-09T12:06:40.117Z,102957.59
2023-02-09T12:09:29.884Z,102957.03
2023-02-09T12:12:12.915Z,102964.84
2023-02-09T12:15:03.279Z,102967.91
2023-02-09T12:17:43.733Z,102971.25
2023-02-09T12:20:31.369Z,102975.03
2023-02-09T12:23:07.862Z,102969.56
2023-02-09T12:25:52.958Z,102966.66
2023-02-09T12:28:44.071Z,102969.28
2023-02-09T12:31:23.867Z,102972.75
2023-02-09T12:34:29.471Z,102964.16
2023-02-09T12:37:17.357Z,102959.59
2023-02-09T12:40:23.880Z,102945.25
2023-02-09T12:43:25.225Z,102940.84
2023-02-09T12:46:45.362Z,102929.03
2023-02-09T12:49:32.855Z,102923.41
2023-02-09T12:52:23.959Z,102926.28
2023-02-09T12:54:53.231Z,102931.16
2023-02-09T12:57:49.774Z,102935.19
2023-02-09T13:00:51.639Z,102935.44
2023-02-09T13:03:23.187Z,102924.22
2023-02-09T13:05:53.903Z,102910.06
2023-02-09T13:08:31.852Z,102901.34
2023-02-09T13:11:06.375Z,102895.25
2023-02-09T13:13:46.228Z,102900.78
2023-02-09T13:16:55.160Z,102904.13
2023-02-09T13:20:16.095Z,102912.25
2023-02-09T13:23:03.291Z,102905.53
2023-02-09T13:25:36.063Z,102905.44
2023-02-09T13:28:14.681Z,102900.50
2023-02-09T13:30:42.788Z,102898.81
2023-02-09T13:33:27.712Z,102889.72
2023-02-09T13:36:24.778Z,102892.25
2023-02-09T13:39:21.090Z,102893.31
2023-02-09T13:41:49.852Z,102886.16
2023-02-09T13:44:24.990Z,102891.44
2023-02-09T13:46:55.143Z,102886.88
2023-02-09T13:49:23.434Z,102893.34
2023-02-09T13:54:46.886Z,102901.25
2023-02-09T13:57:34.350Z,102890.97
2023-02-09T14:00:15.173Z,102882.34
2023-02-09T14:02:47.993Z,102889.28
2023-02-09T14:05:30.410Z,102900.06
2023-02-09T14:07:58.008Z,102903.50
2023-02-09T14:10:37.698Z,102903.03
2023-02-09T14:13:19.446Z,102905.91
2023-02-09T14:16:09.017Z,102904.81
2023-02-09T14:18:51.638Z,102905.03
2023-02-09T14:21:27.054Z,102894.59
2023-02-09T14:24:19.821Z,102902.25
2023-02-09T14:27:03.804Z,102908.13
2023-02-09T14:29:36.661Z,102907.91
2023-02-09T14:32:32.417Z,102905.72
2023-02-09T14:35:17.222Z,102904.28
2023-02-09T14:37:48.486Z,102909.06
2023-02-09T14:40:30.880Z,102916.13
2023-02-09T14:43:02.955Z,102925.63
2023-02-09T14:45:38.029Z,102924.66
2023-02-09T14:48:20.812Z,102921.31
2023-02-09T14:50:49.297Z,102924.16
2023-02-09T14:53:17.975Z,102924.16
2023-02-09T14:55:48.401Z,102925.16
2023-02-09T14:58:25.798Z,102927.56
2023-02-09T15:00:56.849Z,102927.19
2023-02-09T15:03:24.060Z,102938.31
2023-02-09T15:05:57.341Z,102935.69
2023-02-09T15:08:28.417Z,102934.88
2023-02-09T15:10:59.296Z,102934.88
2023-02-09T15:13:30.517Z,102930.41
2023-02-09T15:15:57.624Z,102935.44
2023-02-09T15:18:27.289Z,102939.78
2023-02-09T15:20:54.690Z,102934.59
2023-02-09T15:23:21.633Z,102938.22
2023-02-09T15:25:48.933Z,102939.88
2023-02-09T15:28:27.775Z,102937.41
2023-02-09T15:30:57.521Z,102943.13
2023-02-09T15:33:26.109Z,102932.38
2023-02-09T15:35:53.867Z,102937.38
2023-02-09T15:38:24.331Z,102938.94
2023-02-09T15:41:10.339Z,102947.44
2023-02-09T15:43:55.668Z,102945.53
2023-02-09T15:46:42.682Z,102944.81
2023-02-09T15:49:12.332Z,102954.63
2023-02-09T15:51:41.028Z,102958.22
2023-02-09T15:54:16.031Z,102963.34
2023-02-09T15:56:47.424Z,102963.34
2023-02-09T15:59:35.581Z,102966.94
2023-02-09T16:02:42.382Z,102968.38
2023-02-09T16:05:09.845Z,102965.16
2023-02-09T16:07:37.430Z,102979.50
2023-02-09T16:10:13.871Z,102963.94
2023-02-09T16:12:40.921Z,102977.81
2023-02-09T16:15:16.739Z,102975.91
2023-02-09T16:17:47.266Z,102975.69
2023-02-09T16:20:15.762Z,102968.50
2023-02-09T16:22:47.586Z,102984.53
2023-02-09T16:25:21.587Z,102979.25
2023-02-09T16:27:50.249Z,102980.81
2023-02-09T16:30:21.984Z,102974.25
2023-02-09T16:32:50.407Z,102974.25
2023-02-09T16:35:20.369Z,102975.06
2023-02-09T16:37:51.019Z,102986.34
2023-02-09T16:40:31.856Z,102988.84
2023-02-09T16:43:01.567Z,102990.97
2023-02-09T16:45:34.721Z,102981.91
2023-02-09T16:48:03.712Z,102993.88
2023-02-09T16:50:35.522Z,102991.97
2023-02-09T16:53:15.378Z,102992.19
2023-02-09T16:55:42.934Z,102993.88
2023-02-09T16:58:13.911Z,103004.63
2023-02-09T17:00:44.295Z,103007.28
2023-02-09T17:03:17.210Z,103007.97
2023-02-09T17:05:48.411Z,103012.53
2023-02-09T17:08:18.963Z,103004.91
2023-02-09T17:10:47.598Z,103007.28
2023-02-09T17:13:20.604Z,103019.00
2023-02-09T17:15:51.056Z,103018.75
2023-02-09T17:18:23.331Z,103016.94
2023-02-09T17:20:54.986Z,103032.53
2023-02-09T17:23:25.796Z,103042.22
2023-02-09T17:25:55.214Z,103039.69
2023-02-09T17:28:23.459Z,103040.50
2023-02-09T17:30:51.828Z,103035.25
2023-02-09T17:33:24.310Z,103040.50
2023-02-09T17:36:23.837Z,103043.28
2023-02-09T17:38:41.028Z,103047.69
2023-02-09T17:41:16.584Z,103048.66
2023-02-09T17:43:44.028Z,103049.59
2023-02-09T17:46:12.322Z,103054.03
2023-02-09T17:48:40.718Z,103060.25
2023-02-09T17:51:20.497Z,103055.22
2023-02-09T17:53:48.785Z,103056.06
2023-02-09T17:56:16.871Z,103061.47
2023-02-09T17:58:44.331Z,103062.53
2023-02-09T18:01:26.098Z,103067.38
2023-02-09T18:03:58.392Z,103067.38
2023-02-09T18:06:33.588Z,103066.78
2023-02-09T18:09:02.006Z,103072.06
2023-02-09T18:11:54.362Z,103085.44
2023-02-09T18:14:23.970Z,103086.16
2023-02-09T18:16:51.917Z,103090.56
2023-02-09T18:19:20.718Z,103087.84
2023-02-09T18:21:50.152Z,103087.00
2023-02-09T18:24:18.031Z,103089.50
2023-02-09T18:26:47.607Z,103086.66
2023-02-09T18:29:14.752Z,103098.97
2023-02-09T18:31:41.735Z,103098.97
2023-02-09T18:34:08.864Z,103098.16
2023-02-09T18:36:37.318Z,103093.84
2023-02-09T18:39:04.382Z,103101.84
2023-02-09T18:41:31.465Z,103092.38
2023-02-09T18:43:58.398Z,103102.28
2023-02-09T18:46:26.928Z,103102.41
2023-02-09T18:48:54.574Z,103091.22
2023-02-09T18:51:22.035Z,103096.63
2023-02-09T18:53:51.201Z,103094.81
2023-02-09T18:56:20.802Z,103100.19
2023-02-09T18:58:49.603Z,103099.25
2023-02-09T19:01:21.796Z,103108.31
2023-02-09T19:03:50.187Z,103108.75
2023-02-09T19:06:20.388Z,103111.38
2023-02-09T19:08:49.983Z,103114.22
2023-02-09T19:11:21.998Z,103105.88
2023-02-09T19:14:08.221Z,103103.22
2023-02-09T19:16:36.415Z,103118.03
2023-02-09T19:19:03.893Z,103110.88
2023-02-09T19:21:31.752Z,103115.19
2023-02-09T19:23:58.886Z,103119.28
2023-02-09T19:26:27.108Z,103120.72
2023-02-09T19:28:56.920Z,103120.72
2023-02-09T19:31:24.815Z,103124.09
2023-02-09T19:33:56.044Z,103126.75
2023-02-09T19:36:24.168Z,103122.41
2023-02-09T19:38:51.112Z,103121.69
2023-02-09T19:41:18.266Z,103121.69
2023-02-09T19:43:46.543Z,103120.00
2023-02-09T19:46:13.447Z,103122.41
2023-02-09T19:48:41.242Z,103119.56
2023-02-09T19:51:08.673Z,103127.22
2023-02-09T19:53:35.840Z,103124.50
2023-02-09T19:56:02.834Z,103126.16
2023-02-09T19:58:30.169Z,103129.44
2023-02-09T20:00:58.560Z,103125.84
2023-02-09T20:03:25.724Z,103129.56
2023-02-09T20:05:52.818Z,103123.47
2023-02-09T20:08:20.246Z,103107.84
2023-02-09T20:10:47.606Z,103118.84
2023-02-09T20:13:15.599Z,103112.34
2023-02-09T20:15:44.035Z,103111.34
2023-02-09T20:18:14.874Z,103112.00
2023-02-09T20:20:44.049Z,103117.91
2023-02-09T20:23:11.004Z,103119.19
2023-02-09T20:25:41.087Z,103116.91
2023-02-09T20:28:08.184Z,103114.28
2023-02-09T20:30:35.320Z,103117.72
2023-02-09T20:33:02.274Z,103116.06
2023-02-09T20:35:30.473Z,103118.56
2023-02-09T20:37:57.337Z,103109.63
2023-02-09T20:40:24.299Z,103120.03
2023-02-09T20:43:09.557Z,103110.47
2023-02-09T20:45:55.131Z,103117.97
2023-02-09T20:48:22.077Z,103120.91
2023-02-09T20:50:50.308Z,103124.47
2023-02-09T20:53:17.381Z,103117.78
2023-02-09T20:55:44.437Z,103115.22
2023-02-09T20:58:13.455Z,103122.28
2023-02-09T21:00:41.360Z,103119.03
2023-02-09T21:03:08.918Z,103116.53
2023-02-09T21:05:36.008Z,103116.72
2023-02-09T21:08:06.395Z,103116.94
2023-02-09T21:10:36.219Z,103103.06
2023-02-09T21:13:04.913Z,103109.38
2023-02-09T21:15:32.300Z,103110.44
2023-02-09T21:17:59.246Z,103113.19
2023-02-09T21:20:26.235Z,103107.28
2023-02-09T21:22:53.550Z,103112.78
2023-02-09T21:25:21.797Z,103115.47
2023-02-09T21:27:48.761Z,103122.53
2023-02-09T21:30:16.464Z,103117.38
2023-02-09T21:32:43.503Z,103126.22
2023-02-09T21:35:10.874Z,103127.91
2023-02-09T21:37:38.759Z,103126.31
2023-02-09T21:40:06.954Z,103127.28
2023-02-09T21:42:36.800Z,103129.16
2023-02-09T21:45:04.304Z,103130.84
2023-02-09T21:47:35.401Z,103130.63
2023-02-09T21:50:03.402Z,103134.72
2023-02-09T21:52:31.470Z,103130.19
2023-02-09T21:54:58.490Z,103142.16
2023-02-09T21:57:26.180Z,103135.03
2023-02-09T21:59:54.433Z,103139.84
2023-02-09T22:02:21.986Z,103141.56
2023-02-09T22:04:50.076Z,103139.44
2023-02-09T22:07:16.997Z,103141.84
2023-02-09T22:09:43.932Z,103138.06
2023-02-09T22:12:10.852Z,103142.16
2023-02-09T22:14:37.801Z,103147.09
2023-02-09T22:17:06.004Z,103148.53
2023-02-09T22:19:32.885Z,103152.66
2023-02-09T22:22:01.003Z,103150.63
2023-02-09T22:24:28.057Z,103153.06
2023-02-09T22:26:54.894Z,103159.16
2023-02-09T22:29:21.899Z,103162.50
2023-02-09T22:31:48.746Z,103168.38
2023-02-09T22:34:17.000Z,103168.38
2023-02-09T22:36:43.872Z,103165.66
2023-02-09T22:39:10.827Z,103170.06
2023-02-09T22:41:37.761Z,103176.78
2023-02-09T22:44:07.874Z,103179.09
2023-02-09T22:46:38.018Z,103184.97
2023-02-09T22:49:08.984Z,103190.03
2023-02-09T22:51:37.235Z,103195.91
2023-02-09T22:54:05.743Z,103203.47
2023-02-09T22:56:36.583Z,103208.50
2023-02-09T22:59:03.660Z,103208.28
2023-02-09T23:01:31.162Z,103213.31
2023-02-09T23:03:58.808Z,103213.09
2023-02-09T23:06:28.477Z,103214.81
2023-02-09T23:08:59.302Z,103214.81
2023-02-09T23:11:27.653Z,103207.66
2023-02-09T23:14:08.543Z,103218.06
2023-02-09T23:16:38.849Z,103211.03
2023-02-09T23:19:10.828Z,103217.94
2023-02-09T23:21:40.971Z,103221.41
2023-02-09T23:24:10.498Z,103227.41
2023-02-09T23:26:38.122Z,103223.00
2023-02-09T23:29:09.386Z,103228.03
2023-02-09T23:31:36.887Z,103230.47
2023-02-09T23:34:04.055Z,103227.00
2023-02-09T23:36:33.967Z,103223.63
2023-02-09T23:39:04.659Z,103216.06
2023-02-09T23:41:34.717Z,103212.94
2023-02-09T23:44:02.228Z,103214.16
2023-02-09T23:46:29.595Z,103214.63
2023-02-09T23:48:58.176Z,103223.03
2023-02-09T23:51:28.468Z,103221.81
2023-02-09T23:53:57.320Z,103215.28
2023-02-09T23:56:25.606Z,103219.31
2023-02-09T23:58:55.305Z,103214.47
